LFKF Airport Information

Runway Information
Runway 05 Length 8136 ft width 148 ft
Elevation 40 ft Threshold 0 ft Heading 48
Runway 23 Length 8136 ft Width 148 ft
Elevation 86 ft Threshold 0 ft Heading 228
Airport Frequencies
Type ATIS Name FIGARI INF Frequency 118.725 MHZ
Type GND Name FIGARI GND Frequency 121.8 MHZ
Type TWR Name FIGARI TWR Frequency 120.3 MHZ
Airport Navaids
Type VOR-DME Name Figari Frequency 116700 KHZ
Airport Weather Information & NOTAM
ADDS - METARS form results

(1642 UTC 18 February 2019)
Data provider http://aviationweather.gov/metar/data/
 
METAR text: LFKF 181630Z AUTO 10006KT 060V120 9999 BKN027 12/06 Q1024 NOSIG
Conditions at: LFKF (FIGARI (AUT) , FR) observed 1630 UTC 18 February 2019
Temperature: 12.0°C (54°F)
Dewpoint: 6.0°C (43°F) [RH = 67%]
Pressure (altimeter): 30.24 inches Hg (1024.0 mb)
Winds: from the E (100 degrees) at 7 MPH (6 knots; 3.1 m/s)
Visibility: 6 or more miles (10+ km)
Ceiling: 2700 feet AGL
Clouds: broken clouds at 2700 feet AGL
Weather: no significant weather observed at this time

METAR text: LFKF 181600Z AUTO 08007KT 050V120 9999 FEW027 13/06 Q1023 NOSIG
Conditions at: LFKF (FIGARI (AUT) , FR) observed 1600 UTC 18 February 2019
Temperature: 13.0°C (55°F)
Dewpoint: 6.0°C (43°F) [RH = 62%]
Pressure (altimeter): 30.21 inches Hg (1023.0 mb)
Winds: from the E (80 degrees) at 8 MPH (7 knots; 3.6 m/s)
Visibility: 6 or more miles (10+ km)
Ceiling: at least 12,000 feet AGL
Clouds: few clouds at 2700 feet AGL
Weather: no significant weather observed at this time

Forecast for: LFKF (FIGARI (AUT) , FR)
Text: TAF LFKF 181400Z 1815/1915 08008KT CAVOK
Forecast period: 1500 UTC 18 February 2019 to 1500 UTC 19 February 2019
Forecast type: FROM: standard forecast or significant change
Winds: from the E (80 degrees) at 9 MPH (8 knots; 4.1 m/s)
Visibility: 6 or more miles 10+ km)
Ceiling: unknown
Clouds: missing
Weather: NSW  (no significant weather)
Text: TEMPO 1818/1907 BKN026
Forecast period: 1800 UTC 18 February 2019 to 0700 UTC 19 February 2019
Forecast type: TEMPORARY: The following changes expected for less than half the time period
Visibility: missing
Ceiling: 2600 feet AGL
Clouds: broken clouds at 2600 feet AGL
Weather: no significant weather forecast for this period